sensor_id;sensor_type;location;lat;lon;timestamp;temperature;humidity
41939;DHT22;23057;48.554;14.454;2022-10-28T00:00:27;8.20;99.90
41939;DHT22;23057;48.554;14.454;2022-10-28T00:03:01;8.20;99.90
41939;DHT22;23057;48.554;14.454;2022-10-28T00:05:35;8.20;99.90
41939;DHT22;23057;48.554;14.454;2022-10-28T00:08:06;8.10;99.90
41939;DHT22;23057;48.554;14.454;2022-10-28T00:10:37;8.20;99.90
41939;DHT22;23057;48.554;14.454;2022-10-28T00:13:08;8.40;99.90
41939;DHT22;23057;48.554;14.454;2022-10-28T00:15:38;8.30;99.90
41939;DHT22;23057;48.554;14.454;2022-10-28T00:18:09;8.10;99.90
41939;DHT22;23057;48.554;14.454;2022-10-28T00:20:40;7.90;99.90
41939;DHT22;23057;48.554;14.454;2022-10-28T00:23:11;7.80;99.90
41939;DHT22;23057;48.554;14.454;2022-10-28T00:25:43;7.90;99.90
41939;DHT22;23057;48.554;14.454;2022-10-28T00:28:14;8.00;99.90
41939;DHT22;23057;48.554;14.454;2022-10-28T00:30:45;7.90;99.90
41939;DHT22;23057;48.554;14.454;2022-10-28T00:33:16;7.90;99.90
41939;DHT22;23057;48.554;14.454;2022-10-28T00:35:46;8.00;99.90
41939;DHT22;23057;48.554;14.454;2022-10-28T00:38:17;8.00;99.90
41939;DHT22;23057;48.554;14.454;2022-10-28T00:40:48;8.10;99.90
41939;DHT22;23057;48.554;14.454;2022-10-28T00:43:33;8.10;99.90
41939;DHT22;23057;48.554;14.454;2022-10-28T00:49:23;8.00;99.90
41939;DHT22;23057;48.554;14.454;2022-10-28T00:52:03;8.20;99.90
41939;DHT22;23057;48.554;14.454;2022-10-28T00:54:39;7.70;99.90
41939;DHT22;23057;48.554;14.454;2022-10-28T00:57:16;7.30;99.90
41939;DHT22;23057;48.554;14.454;2022-10-28T00:59:53;7.40;99.90
41939;DHT22;23057;48.554;14.454;2022-10-28T01:02:24;7.60;99.90
41939;DHT22;23057;48.554;14.454;2022-10-28T01:04:56;7.80;99.90
41939;DHT22;23057;48.554;14.454;2022-10-28T01:07:27;7.80;99.90
41939;DHT22;23057;48.554;14.454;2022-10-28T01:09:59;7.80;99.90
41939;DHT22;23057;48.554;14.454;2022-10-28T01:15:56;7.60;99.90
41939;DHT22;23057;48.554;14.454;2022-10-28T01:22:06;7.50;99.90
41939;DHT22;23057;48.554;14.454;2022-10-28T01:28:08;7.50;99.90
41939;DHT22;23057;48.554;14.454;2022-10-28T01:34:13;7.50;99.90
41939;DHT22;23057;48.554;14.454;2022-10-28T01:38:14;7.70;99.90
41939;DHT22;23057;48.554;14.454;2022-10-28T01:41:12;7.90;99.90
41939;DHT22;23057;48.554;14.454;2022-10-28T01:50:06;7.60;99.90
41939;DHT22;23057;48.554;14.454;2022-10-28T01:52:47;7.60;99.90
41939;DHT22;23057;48.554;14.454;2022-10-28T01:55:34;7.70;99.90
41939;DHT22;23057;48.554;14.454;2022-10-28T01:58:16;7.70;99.90
41939;DHT22;23057;48.554;14.454;2022-10-28T02:00:53;7.70;99.90
41939;DHT22;23057;48.554;14.454;2022-10-28T02:03:26;7.60;99.90
41939;DHT22;23057;48.554;14.454;2022-10-28T02:06:00;7.60;99.90
41939;DHT22;23057;48.554;14.454;2022-10-28T02:08:58;7.80;99.90
41939;DHT22;23057;48.554;14.454;2022-10-28T02:25:04;7.50;99.90
41939;DHT22;23057;48.554;14.454;2022-10-28T02:28:08;7.20;99.90
41939;DHT22;23057;48.554;14.454;2022-10-28T02:30:57;7.30;99.90
41939;DHT22;23057;48.554;14.454;2022-10-28T02:33:39;7.30;99.90
41939;DHT22;23057;48.554;14.454;2022-10-28T02:36:16;7.30;99.90
41939;DHT22;23057;48.554;14.454;2022-10-28T02:38:55;7.40;99.90
41939;DHT22;23057;48.554;14.454;2022-10-28T02:41:45;7.50;99.90
41939;DHT22;23057;48.554;14.454;2022-10-28T02:44:32;7.30;99.90
41939;DHT22;23057;48.554;14.454;2022-10-28T02:47:15;7.30;99.90
41939;DHT22;23057;48.554;14.454;2022-10-28T02:49:54;7.40;99.90
41939;DHT22;23057;48.554;14.454;2022-10-28T02:52:32;7.50;99.90
41939;DHT22;23057;48.554;14.454;2022-10-28T02:55:05;7.70;99.90
41939;DHT22;23057;48.554;14.454;2022-10-28T02:57:40;7.90;99.90
41939;DHT22;23057;48.554;14.454;2022-10-28T03:00:20;7.80;99.90
41939;DHT22;23057;48.554;14.454;2022-10-28T03:02:54;7.60;99.90
41939;DHT22;23057;48.554;14.454;2022-10-28T03:05:25;7.60;99.90
41939;DHT22;23057;48.554;14.454;2022-10-28T03:07:56;7.40;99.90
41939;DHT22;23057;48.554;14.454;2022-10-28T03:10:26;7.00;99.90
41939;DHT22;23057;48.554;14.454;2022-10-28T03:12:57;6.80;99.90
41939;DHT22;23057;48.554;14.454;2022-10-28T03:15:28;6.80;99.90
41939;DHT22;23057;48.554;14.454;2022-10-28T03:17:59;6.70;99.90
41939;DHT22;23057;48.554;14.454;2022-10-28T03:20:30;6.80;99.90
41939;DHT22;23057;48.554;14.454;2022-10-28T03:23:01;6.90;99.90
41939;DHT22;23057;48.554;14.454;2022-10-28T03:25:31;6.90;99.90
41939;DHT22;23057;48.554;14.454;2022-10-28T03:28:02;6.70;99.90
41939;DHT22;23057;48.554;14.454;2022-10-28T03:30:33;6.70;99.90
41939;DHT22;23057;48.554;14.454;2022-10-28T03:33:04;6.90;99.90
41939;DHT22;23057;48.554;14.454;2022-10-28T03:35:35;7.20;99.90
41939;DHT22;23057;48.554;14.454;2022-10-28T03:38:06;7.40;99.90
41939;DHT22;23057;48.554;14.454;2022-10-28T03:40:37;7.30;99.90
41939;DHT22;23057;48.554;14.454;2022-10-28T03:43:08;7.30;99.90
41939;DHT22;23057;48.554;14.454;2022-10-28T03:45:39;7.30;99.90
41939;DHT22;23057;48.554;14.454;2022-10-28T03:48:10;7.30;99.90
41939;DHT22;23057;48.554;14.454;2022-10-28T03:50:41;7.30;99.90
41939;DHT22;23057;48.554;14.454;2022-10-28T03:53:11;7.20;99.90
41939;DHT22;23057;48.554;14.454;2022-10-28T03:55:42;7.20;99.90
41939;DHT22;23057;48.554;14.454;2022-10-28T03:58:13;7.10;99.90
41939;DHT22;23057;48.554;14.454;2022-10-28T04:00:44;7.10;99.90
41939;DHT22;23057;48.554;14.454;2022-10-28T04:03:20;6.90;99.90
41939;DHT22;23057;48.554;14.454;2022-10-28T04:05:53;6.90;99.90
41939;DHT22;23057;48.554;14.454;2022-10-28T04:08:24;6.90;99.90
41939;DHT22;23057;48.554;14.454;2022-10-28T04:10:54;6.90;99.90
41939;DHT22;23057;48.554;14.454;2022-10-28T04:13:25;7.10;99.90
41939;DHT22;23057;48.554;14.454;2022-10-28T04:15:56;6.90;99.90
41939;DHT22;23057;48.554;14.454;2022-10-28T04:18:27;6.90;99.90
41939;DHT22;23057;48.554;14.454;2022-10-28T04:20:58;7.00;99.90
41939;DHT22;23057;48.554;14.454;2022-10-28T04:23:29;7.00;99.90
41939;DHT22;23057;48.554;14.454;2022-10-28T04:26:00;6.90;99.90
41939;DHT22;23057;48.554;14.454;2022-10-28T04:28:30;7.00;99.90
41939;DHT22;23057;48.554;14.454;2022-10-28T04:31:02;7.10;99.90
41939;DHT22;23057;48.554;14.454;2022-10-28T04:33:33;7.10;99.90
41939;DHT22;23057;48.554;14.454;2022-10-28T04:36:04;7.70;99.90
41939;DHT22;23057;48.554;14.454;2022-10-28T04:38:35;7.80;99.90
41939;DHT22;23057;48.554;14.454;2022-10-28T04:41:08;7.60;99.90
41939;DHT22;23057;48.554;14.454;2022-10-28T04:43:43;7.50;99.90
41939;DHT22;23057;48.554;14.454;2022-10-28T04:46:14;7.60;99.90
41939;DHT22;23057;48.554;14.454;2022-10-28T04:48:46;7.50;99.90
41939;DHT22;23057;48.554;14.454;2022-10-28T04:51:17;7.50;99.90
41939;DHT22;23057;48.554;14.454;2022-10-28T04:53:48;7.40;99.90
41939;DHT22;23057;48.554;14.454;2022-10-28T04:56:19;7.30;99.90
41939;DHT22;23057;48.554;14.454;2022-10-28T04:58:50;7.40;99.90
41939;DHT22;23057;48.554;14.454;2022-10-28T05:01:21;7.90;99.90
41939;DHT22;23057;48.554;14.454;2022-10-28T05:03:52;8.80;99.90
41939;DHT22;23057;48.554;14.454;2022-10-28T05:06:23;9.00;99.90
41939;DHT22;23057;48.554;14.454;2022-10-28T05:08:54;9.20;99.90
41939;DHT22;23057;48.554;14.454;2022-10-28T05:11:25;9.00;99.90
41939;DHT22;23057;48.554;14.454;2022-10-28T05:13:56;8.50;99.90
41939;DHT22;23057;48.554;14.454;2022-10-28T05:16:26;8.00;99.90
41939;DHT22;23057;48.554;14.454;2022-10-28T05:18:57;7.50;99.90
41939;DHT22;23057;48.554;14.454;2022-10-28T05:21:28;7.30;99.90
41939;DHT22;23057;48.554;14.454;2022-10-28T05:23:59;7.20;99.90
41939;DHT22;23057;48.554;14.454;2022-10-28T05:26:30;7.10;99.90
41939;DHT22;23057;48.554;14.454;2022-10-28T05:29:01;7.20;99.90
41939;DHT22;23057;48.554;14.454;2022-10-28T05:31:32;7.10;99.90
41939;DHT22;23057;48.554;14.454;2022-10-28T05:34:03;7.00;99.90
41939;DHT22;23057;48.554;14.454;2022-10-28T05:36:33;7.20;99.90
41939;DHT22;23057;48.554;14.454;2022-10-28T05:39:04;7.20;99.90
41939;DHT22;23057;48.554;14.454;2022-10-28T05:41:35;7.30;99.90
41939;DHT22;23057;48.554;14.454;2022-10-28T05:44:06;7.30;99.90
41939;DHT22;23057;48.554;14.454;2022-10-28T05:46:37;7.50;99.90
41939;DHT22;23057;48.554;14.454;2022-10-28T05:49:08;7.50;99.90
41939;DHT22;23057;48.554;14.454;2022-10-28T05:51:38;7.30;99.90
41939;DHT22;23057;48.554;14.454;2022-10-28T05:54:09;7.40;99.90
41939;DHT22;23057;48.554;14.454;2022-10-28T05:56:40;7.30;99.90
41939;DHT22;23057;48.554;14.454;2022-10-28T05:59:11;7.20;99.90
41939;DHT22;23057;48.554;14.454;2022-10-28T06:01:42;7.40;99.90
41939;DHT22;23057;48.554;14.454;2022-10-28T06:04:13;7.50;99.90
41939;DHT22;23057;48.554;14.454;2022-10-28T06:06:44;7.80;99.90
41939;DHT22;23057;48.554;14.454;2022-10-28T06:09:14;8.50;99.90
41939;DHT22;23057;48.554;14.454;2022-10-28T06:11:45;9.30;99.90
41939;DHT22;23057;48.554;14.454;2022-10-28T06:14:16;9.70;99.90
41939;DHT22;23057;48.554;14.454;2022-10-28T06:16:47;10.40;99.90
41939;DHT22;23057;48.554;14.454;2022-10-28T06:19:18;10.80;99.90
41939;DHT22;23057;48.554;14.454;2022-10-28T06:21:49;11.20;99.90
41939;DHT22;23057;48.554;14.454;2022-10-28T06:24:20;12.30;99.90
41939;DHT22;23057;48.554;14.454;2022-10-28T06:26:51;13.40;99.90
41939;DHT22;23057;48.554;14.454;2022-10-28T06:29:22;14.30;99.90
41939;DHT22;23057;48.554;14.454;2022-10-28T06:31:52;14.70;99.90
41939;DHT22;23057;48.554;14.454;2022-10-28T06:34:23;13.90;99.90
41939;DHT22;23057;48.554;14.454;2022-10-28T06:36:54;14.50;99.90
41939;DHT22;23057;48.554;14.454;2022-10-28T06:39:25;15.20;99.90
41939;DHT22;23057;48.554;14.454;2022-10-28T06:41:56;16.30;99.90
41939;DHT22;23057;48.554;14.454;2022-10-28T06:44:27;16.70;99.90
41939;DHT22;23057;48.554;14.454;2022-10-28T06:46:57;16.70;99.90
41939;DHT22;23057;48.554;14.454;2022-10-28T06:49:28;16.30;99.90
41939;DHT22;23057;48.554;14.454;2022-10-28T06:51:59;16.10;99.90
41939;DHT22;23057;48.554;14.454;2022-10-28T06:54:30;15.50;99.90
41939;DHT22;23057;48.554;14.454;2022-10-28T06:57:01;14.90;1.00
41939;DHT22;23057;48.554;14.454;2022-10-28T06:59:31;14.80;78.40
41939;DHT22;23057;48.554;14.454;2022-10-28T07:02:02;14.90;1.00
41939;DHT22;23057;48.554;14.454;2022-10-28T07:04:33;14.60;99.90
41939;DHT22;23057;48.554;14.454;2022-10-28T07:07:04;14.00;99.90
41939;DHT22;23057;48.554;14.454;2022-10-28T07:09:35;13.60;99.90
41939;DHT22;23057;48.554;14.454;2022-10-28T07:12:08;13.60;99.90
41939;DHT22;23057;48.554;14.454;2022-10-28T07:14:39;13.70;1.00
41939;DHT22;23057;48.554;14.454;2022-10-28T07:17:10;13.70;29.20
41939;DHT22;23057;48.554;14.454;2022-10-28T07:19:46;14.00;99.90
41939;DHT22;23057;48.554;14.454;2022-10-28T07:22:23;14.20;99.90
41939;DHT22;23057;48.554;14.454;2022-10-28T07:24:54;13.90;99.90
41939;DHT22;23057;48.554;14.454;2022-10-28T07:27:25;13.70;99.90
41939;DHT22;23057;48.554;14.454;2022-10-28T07:29:56;13.60;99.90
41939;DHT22;23057;48.554;14.454;2022-10-28T07:32:31;13.70;99.90
41939;DHT22;23057;48.554;14.454;2022-10-28T07:35:02;14.30;99.90
41939;DHT22;23057;48.554;14.454;2022-10-28T07:37:34;14.90;99.90
41939;DHT22;23057;48.554;14.454;2022-10-28T07:40:05;15.30;99.90
41939;DHT22;23057;48.554;14.454;2022-10-28T07:42:37;15.40;99.90
41939;DHT22;23057;48.554;14.454;2022-10-28T07:45:08;15.30;99.90
41939;DHT22;23057;48.554;14.454;2022-10-28T07:47:39;15.60;99.90
41939;DHT22;23057;48.554;14.454;2022-10-28T07:50:11;15.70;99.90
41939;DHT22;23057;48.554;14.454;2022-10-28T07:52:42;15.90;99.90
41939;DHT22;23057;48.554;14.454;2022-10-28T07:55:13;16.10;99.90
41939;DHT22;23057;48.554;14.454;2022-10-28T07:57:44;16.20;99.90
41939;DHT22;23057;48.554;14.454;2022-10-28T08:00:15;16.10;1.00
41939;DHT22;23057;48.554;14.454;2022-10-28T08:02:46;15.70;15.40
41939;DHT22;23057;48.554;14.454;2022-10-28T08:05:17;15.30;76.70
41939;DHT22;23057;48.554;14.454;2022-10-28T08:07:48;15.10;99.90
41939;DHT22;23057;48.554;14.454;2022-10-28T08:10:19;15.10;99.90
41939;DHT22;23057;48.554;14.454;2022-10-28T08:12:49;15.20;99.90
41939;DHT22;23057;48.554;14.454;2022-10-28T08:15:20;15.00;99.90
41939;DHT22;23057;48.554;14.454;2022-10-28T08:17:53;15.00;99.90
41939;DHT22;23057;48.554;14.454;2022-10-28T08:20:24;15.00;99.90
41939;DHT22;23057;48.554;14.454;2022-10-28T08:22:57;14.90;99.90
41939;DHT22;23057;48.554;14.454;2022-10-28T08:25:28;15.10;99.90
41939;DHT22;23057;48.554;14.454;2022-10-28T08:27:59;15.30;99.90
41939;DHT22;23057;48.554;14.454;2022-10-28T08:30:30;15.50;99.90
41939;DHT22;23057;48.554;14.454;2022-10-28T08:33:01;15.50;1.00
41939;DHT22;23057;48.554;14.454;2022-10-28T08:35:32;15.60;1.00
41939;DHT22;23057;48.554;14.454;2022-10-28T08:38:04;15.90;1.00
41939;DHT22;23057;48.554;14.454;2022-10-28T08:40:42;15.90;99.90
41939;DHT22;23057;48.554;14.454;2022-10-28T08:49:55;15.90;99.90
41939;DHT22;23057;48.554;14.454;2022-10-28T08:53:13;16.00;99.90
41939;DHT22;23057;48.554;14.454;2022-10-28T08:55:55;16.20;99.90
41939;DHT22;23057;48.554;14.454;2022-10-28T08:58:38;16.50;1.00
41939;DHT22;23057;48.554;14.454;2022-10-28T09:01:19;16.40;99.90
41939;DHT22;23057;48.554;14.454;2022-10-28T09:04:29;16.20;99.90
41939;DHT22;23057;48.554;14.454;2022-10-28T09:07:17;16.20;1.00
41939;DHT22;23057;48.554;14.454;2022-10-28T09:09:52;16.30;1.00
41939;DHT22;23057;48.554;14.454;2022-10-28T09:15:44;16.50;1.00
41939;DHT22;23057;48.554;14.454;2022-10-28T09:18:51;16.70;1.00
41939;DHT22;23057;48.554;14.454;2022-10-28T09:21:36;16.90;99.90
41939;DHT22;23057;48.554;14.454;2022-10-28T09:27:43;17.20;99.90
41939;DHT22;23057;48.554;14.454;2022-10-28T09:39:48;17.80;1.00
41939;DHT22;23057;48.554;14.454;2022-10-28T09:42:34;17.70;1.00
41939;DHT22;23057;48.554;14.454;2022-10-28T09:45:18;17.70;1.00
41939;DHT22;23057;48.554;14.454;2022-10-28T09:48:03;17.90;1.00
41939;DHT22;23057;48.554;14.454;2022-10-28T09:50:44;18.20;1.00
41939;DHT22;23057;48.554;14.454;2022-10-28T09:56:37;18.80;99.90
41939;DHT22;23057;48.554;14.454;2022-10-28T09:59:14;18.70;99.90
41939;DHT22;23057;48.554;14.454;2022-10-28T10:01:46;18.80;99.90
41939;DHT22;23057;48.554;14.454;2022-10-28T10:04:19;18.90;99.90
41939;DHT22;23057;48.554;14.454;2022-10-28T10:06:57;18.80;99.90
41939;DHT22;23057;48.554;14.454;2022-10-28T10:09:38;18.70;99.90
41939;DHT22;23057;48.554;14.454;2022-10-28T10:12:11;18.70;99.90
41939;DHT22;23057;48.554;14.454;2022-10-28T10:14:48;18.70;99.90
41939;DHT22;23057;48.554;14.454;2022-10-28T10:17:34;18.50;94.20
41939;DHT22;23057;48.554;14.454;2022-10-28T10:20:16;18.50;99.90
41939;DHT22;23057;48.554;14.454;2022-10-28T10:22:50;18.40;99.90
41939;DHT22;23057;48.554;14.454;2022-10-28T10:25:24;18.50;99.90
41939;DHT22;23057;48.554;14.454;2022-10-28T10:28:12;18.70;99.90
41939;DHT22;23057;48.554;14.454;2022-10-28T10:30:49;18.80;47.60
41939;DHT22;23057;48.554;14.454;2022-10-28T10:33:33;19.20;32.30
41939;DHT22;23057;48.554;14.454;2022-10-28T10:44:30;19.50;1.00
41939;DHT22;23057;48.554;14.454;2022-10-28T10:49:35;19.60;1.00
41939;DHT22;23057;48.554;14.454;2022-10-28T10:52:16;19.60;1.00
41939;DHT22;23057;48.554;14.454;2022-10-28T10:55:22;19.70;1.00
41939;DHT22;23057;48.554;14.454;2022-10-28T10:58:03;19.90;1.00
41939;DHT22;23057;48.554;14.454;2022-10-28T11:00:48;20.20;1.00
41939;DHT22;23057;48.554;14.454;2022-10-28T11:03:29;20.10;1.00
41939;DHT22;23057;48.554;14.454;2022-10-28T11:06:07;20.20;1.00
41939;DHT22;23057;48.554;14.454;2022-10-28T11:09:02;20.20;1.00
41939;DHT22;23057;48.554;14.454;2022-10-28T11:11:38;20.50;1.00
41939;DHT22;23057;48.554;14.454;2022-10-28T11:16:53;20.10;1.00
41939;DHT22;23057;48.554;14.454;2022-10-28T11:19:32;19.90;1.00
41939;DHT22;23057;48.554;14.454;2022-10-28T11:25:36;20.30;1.00
41939;DHT22;23057;48.554;14.454;2022-10-28T11:43:53;18.90;1.00
41939;DHT22;23057;48.554;14.454;2022-10-28T11:56:42;18.80;81.20
41939;DHT22;23057;48.554;14.454;2022-10-28T12:08:22;19.10;97.20
41939;DHT22;23057;48.554;14.454;2022-10-28T12:14:19;19.20;97.90
41939;DHT22;23057;48.554;14.454;2022-10-28T12:17:13;19.40;90.60
41939;DHT22;23057;48.554;14.454;2022-10-28T12:20:07;19.20;32.60
41939;DHT22;23057;48.554;14.454;2022-10-28T12:23:13;19.20;38.10
41939;DHT22;23057;48.554;14.454;2022-10-28T12:25:52;19.30;96.40
41939;DHT22;23057;48.554;14.454;2022-10-28T12:28:31;19.30;79.70
41939;DHT22;23057;48.554;14.454;2022-10-28T12:31:27;19.30;39.50
41939;DHT22;23057;48.554;14.454;2022-10-28T12:34:12;19.00;1.00
41939;DHT22;23057;48.554;14.454;2022-10-28T12:36:55;18.80;20.60
41939;DHT22;23057;48.554;14.454;2022-10-28T12:42:47;18.80;1.00
41939;DHT22;23057;48.554;14.454;2022-10-28T12:45:26;19.00;13.20
41939;DHT22;23057;48.554;14.454;2022-10-28T12:48:32;19.00;54.20
41939;DHT22;23057;48.554;14.454;2022-10-28T12:51:30;18.90;99.90
41939;DHT22;23057;48.554;14.454;2022-10-28T12:54:40;18.70;99.90
41939;DHT22;23057;48.554;14.454;2022-10-28T12:57:26;18.60;99.90
41939;DHT22;23057;48.554;14.454;2022-10-28T13:03:06;18.70;99.90
41939;DHT22;23057;48.554;14.454;2022-10-28T13:10:02;18.70;99.90
41939;DHT22;23057;48.554;14.454;2022-10-28T13:28:39;18.70;99.90
41939;DHT22;23057;48.554;14.454;2022-10-28T13:31:18;18.50;99.90
41939;DHT22;23057;48.554;14.454;2022-10-28T13:33:57;18.50;99.90
41939;DHT22;23057;48.554;14.454;2022-10-28T13:36:31;18.40;99.90
41939;DHT22;23057;48.554;14.454;2022-10-28T13:39:38;18.30;99.90
41939;DHT22;23057;48.554;14.454;2022-10-28T13:44:50;18.10;99.90
41939;DHT22;23057;48.554;14.454;2022-10-28T13:52:44;18.10;99.90
41939;DHT22;23057;48.554;14.454;2022-10-28T13:55:25;18.20;99.90
41939;DHT22;23057;48.554;14.454;2022-10-28T13:58:20;18.10;99.90
41939;DHT22;23057;48.554;14.454;2022-10-28T14:00:55;18.10;99.90
41939;DHT22;23057;48.554;14.454;2022-10-28T14:03:26;18.10;99.90
41939;DHT22;23057;48.554;14.454;2022-10-28T14:05:59;18.00;99.90
41939;DHT22;23057;48.554;14.454;2022-10-28T14:08:37;18.10;99.90
41939;DHT22;23057;48.554;14.454;2022-10-28T14:11:13;18.20;99.90
41939;DHT22;23057;48.554;14.454;2022-10-28T14:14:00;18.20;99.90
41939;DHT22;23057;48.554;14.454;2022-10-28T14:16:39;18.10;99.90
41939;DHT22;23057;48.554;14.454;2022-10-28T14:19:17;18.10;99.90
41939;DHT22;23057;48.554;14.454;2022-10-28T14:22:02;18.00;99.90
41939;DHT22;23057;48.554;14.454;2022-10-28T14:24:39;17.90;99.90
41939;DHT22;23057;48.554;14.454;2022-10-28T14:50:44;17.10;99.90
41939;DHT22;23057;48.554;14.454;2022-10-28T14:56:08;16.80;99.90
41939;DHT22;23057;48.554;14.454;2022-10-28T14:58:50;16.70;99.90
41939;DHT22;23057;48.554;14.454;2022-10-28T15:01:27;16.70;99.90
41939;DHT22;23057;48.554;14.454;2022-10-28T15:04:19;16.60;99.90
41939;DHT22;23057;48.554;14.454;2022-10-28T15:06:51;16.60;99.90
41939;DHT22;23057;48.554;14.454;2022-10-28T15:09:26;16.60;99.90
41939;DHT22;23057;48.554;14.454;2022-10-28T15:12:10;16.50;99.90
41939;DHT22;23057;48.554;14.454;2022-10-28T15:14:52;16.40;99.90
41939;DHT22;23057;48.554;14.454;2022-10-28T15:17:36;16.20;99.90
41939;DHT22;23057;48.554;14.454;2022-10-28T15:23:16;16.10;99.90
41939;DHT22;23057;48.554;14.454;2022-10-28T15:26:13;16.30;99.90
41939;DHT22;23057;48.554;14.454;2022-10-28T15:28:46;16.40;99.90
41939;DHT22;23057;48.554;14.454;2022-10-28T15:31:16;16.30;99.90
41939;DHT22;23057;48.554;14.454;2022-10-28T15:33:47;16.30;1.00
41939;DHT22;23057;48.554;14.454;2022-10-28T15:36:21;16.20;1.00
41939;DHT22;23057;48.554;14.454;2022-10-28T15:41:43;15.90;99.90
41939;DHT22;23057;48.554;14.454;2022-10-28T15:44:25;15.70;99.90
41939;DHT22;23057;48.554;14.454;2022-10-28T15:47:29;15.50;99.90
41939;DHT22;23057;48.554;14.454;2022-10-28T15:52:47;14.90;1.00
41939;DHT22;23057;48.554;14.454;2022-10-28T15:55:28;14.70;99.90
41939;DHT22;23057;48.554;14.454;2022-10-28T16:00:51;14.40;99.90
41939;DHT22;23057;48.554;14.454;2022-10-28T16:03:45;14.40;99.90
41939;DHT22;23057;48.554;14.454;2022-10-28T16:06:36;14.30;99.90
41939;DHT22;23057;48.554;14.454;2022-10-28T16:09:17;14.20;99.90
41939;DHT22;23057;48.554;14.454;2022-10-28T16:12:02;14.20;99.90
41939;DHT22;23057;48.554;14.454;2022-10-28T16:14:56;14.10;99.90
41939;DHT22;23057;48.554;14.454;2022-10-28T16:17:34;14.10;99.90
41939;DHT22;23057;48.554;14.454;2022-10-28T16:20:15;14.00;99.90
41939;DHT22;23057;48.554;14.454;2022-10-28T16:22:53;13.90;99.90
41939;DHT22;23057;48.554;14.454;2022-10-28T16:25:23;13.80;99.90
41939;DHT22;23057;48.554;14.454;2022-10-28T16:27:55;13.60;99.90
41939;DHT22;23057;48.554;14.454;2022-10-28T16:30:26;13.50;99.90
41939;DHT22;23057;48.554;14.454;2022-10-28T16:32:57;13.50;99.90
41939;DHT22;23057;48.554;14.454;2022-10-28T16:35:27;13.60;99.90
41939;DHT22;23057;48.554;14.454;2022-10-28T16:37:58;13.60;99.90
41939;DHT22;23057;48.554;14.454;2022-10-28T16:40:29;13.60;99.90
41939;DHT22;23057;48.554;14.454;2022-10-28T16:43:02;13.50;99.90
41939;DHT22;23057;48.554;14.454;2022-10-28T16:45:33;13.30;99.90
41939;DHT22;23057;48.554;14.454;2022-10-28T16:48:07;13.20;99.90
41939;DHT22;23057;48.554;14.454;2022-10-28T16:50:50;13.10;99.90
41939;DHT22;23057;48.554;14.454;2022-10-28T16:53:24;13.10;99.90
41939;DHT22;23057;48.554;14.454;2022-10-28T16:55:55;12.90;99.90
41939;DHT22;23057;48.554;14.454;2022-10-28T16:58:28;12.70;99.90
41939;DHT22;23057;48.554;14.454;2022-10-28T17:00:59;12.60;99.90
41939;DHT22;23057;48.554;14.454;2022-10-28T17:03:30;12.50;99.90
41939;DHT22;23057;48.554;14.454;2022-10-28T17:06:01;12.40;99.90
41939;DHT22;23057;48.554;14.454;2022-10-28T17:08:32;12.30;99.90
41939;DHT22;23057;48.554;14.454;2022-10-28T17:11:03;12.30;99.90
41939;DHT22;23057;48.554;14.454;2022-10-28T17:13:34;12.20;99.90
41939;DHT22;23057;48.554;14.454;2022-10-28T17:16:05;12.20;99.90
41939;DHT22;23057;48.554;14.454;2022-10-28T17:18:36;12.20;99.90
41939;DHT22;23057;48.554;14.454;2022-10-28T17:21:07;12.30;99.90
41939;DHT22;23057;48.554;14.454;2022-10-28T17:23:38;12.40;99.90
41939;DHT22;23057;48.554;14.454;2022-10-28T17:26:09;12.40;99.90
41939;DHT22;23057;48.554;14.454;2022-10-28T17:28:40;12.40;99.90
41939;DHT22;23057;48.554;14.454;2022-10-28T17:31:11;12.40;99.90
41939;DHT22;23057;48.554;14.454;2022-10-28T17:33:42;12.30;99.90
41939;DHT22;23057;48.554;14.454;2022-10-28T17:36:13;11.90;99.90
41939;DHT22;23057;48.554;14.454;2022-10-28T17:38:43;11.60;99.90
41939;DHT22;23057;48.554;14.454;2022-10-28T17:41:14;11.40;99.90
41939;DHT22;23057;48.554;14.454;2022-10-28T17:43:45;11.40;99.90
41939;DHT22;23057;48.554;14.454;2022-10-28T17:46:16;11.40;99.90
41939;DHT22;23057;48.554;14.454;2022-10-28T17:48:47;11.60;99.90
41939;DHT22;23057;48.554;14.454;2022-10-28T17:51:18;11.60;99.90
41939;DHT22;23057;48.554;14.454;2022-10-28T17:53:54;11.70;99.90
41939;DHT22;23057;48.554;14.454;2022-10-28T17:56:25;11.80;99.90
41939;DHT22;23057;48.554;14.454;2022-10-28T17:58:57;11.80;99.90
41939;DHT22;23057;48.554;14.454;2022-10-28T18:01:32;11.70;99.90
41939;DHT22;23057;48.554;14.454;2022-10-28T18:04:04;11.80;99.90
41939;DHT22;23057;48.554;14.454;2022-10-28T18:06:37;11.70;99.90
41939;DHT22;23057;48.554;14.454;2022-10-28T18:09:12;11.70;99.90
41939;DHT22;23057;48.554;14.454;2022-10-28T18:11:43;11.80;99.90
41939;DHT22;23057;48.554;14.454;2022-10-28T18:14:15;11.90;99.90
41939;DHT22;23057;48.554;14.454;2022-10-28T18:16:47;11.90;99.90
41939;DHT22;23057;48.554;14.454;2022-10-28T18:19:19;11.70;99.90
41939;DHT22;23057;48.554;14.454;2022-10-28T18:21:50;11.70;99.90
41939;DHT22;23057;48.554;14.454;2022-10-28T18:24:22;11.60;99.90
41939;DHT22;23057;48.554;14.454;2022-10-28T18:26:53;11.60;99.90
41939;DHT22;23057;48.554;14.454;2022-10-28T18:29:25;11.60;99.90
41939;DHT22;23057;48.554;14.454;2022-10-28T18:31:56;11.40;99.90
41939;DHT22;23057;48.554;14.454;2022-10-28T18:34:27;11.20;99.90
41939;DHT22;23057;48.554;14.454;2022-10-28T18:36:58;11.10;99.90
41939;DHT22;23057;48.554;14.454;2022-10-28T18:39:29;11.20;99.90
41939;DHT22;23057;48.554;14.454;2022-10-28T18:42:00;11.20;99.90
41939;DHT22;23057;48.554;14.454;2022-10-28T18:44:31;11.20;99.90
41939;DHT22;23057;48.554;14.454;2022-10-28T18:47:02;11.10;99.90
41939;DHT22;23057;48.554;14.454;2022-10-28T18:49:33;11.10;99.90
41939;DHT22;23057;48.554;14.454;2022-10-28T18:52:03;11.00;99.90
41939;DHT22;23057;48.554;14.454;2022-10-28T18:54:34;11.10;99.90
41939;DHT22;23057;48.554;14.454;2022-10-28T18:57:05;11.30;99.90
41939;DHT22;23057;48.554;14.454;2022-10-28T18:59:36;11.30;99.90
41939;DHT22;23057;48.554;14.454;2022-10-28T19:02:08;11.40;99.90
41939;DHT22;23057;48.554;14.454;2022-10-28T19:04:40;11.40;99.90
41939;DHT22;23057;48.554;14.454;2022-10-28T19:07:11;11.30;99.90
41939;DHT22;23057;48.554;14.454;2022-10-28T19:09:42;11.30;99.90
41939;DHT22;23057;48.554;14.454;2022-10-28T19:12:13;11.30;99.90
41939;DHT22;23057;48.554;14.454;2022-10-28T19:14:43;11.30;99.90
41939;DHT22;23057;48.554;14.454;2022-10-28T19:17:14;11.30;99.90
41939;DHT22;23057;48.554;14.454;2022-10-28T19:19:45;11.30;99.90
41939;DHT22;23057;48.554;14.454;2022-10-28T19:22:18;11.30;99.90
41939;DHT22;23057;48.554;14.454;2022-10-28T19:24:49;11.30;99.90